Terminal Aerodrome Forecast
Issued by NWS Shreveport, LA

Home | Current Version | Previous Version | Text Only | Print | Product List | Glossary On
Versions: 1 2 3 4 5 6 7 8 9 10 11 12 13
000
FTUS44 KSHV 020532
TAFTYR
TAF
KTYR 020532Z 0206/0306 09004KT P6SM SCT250
     FM021500 13007KT P6SM SCT250
     FM030000 12005KT P6SM SCT250=

USA.gov is the U.S. government's official web portal to all federal, state and local government web resources and services.